Starlight, Indiana
Current Conditions -  °F | °C
As of 8:53 PM on Tuesday 21 Oct 2014 (Local Time) from KLOU Reporting Station
Overcast Overcast  
Wind Chill: 55°   Ceiling: 5000
Heat Index: 55°   Visibility: 10mi
Dew Point: 43°   Wind: 0mph
Humidity: 64%   Direction: NA
Pressure: 30.14"   Gusts: NA
Location:  38.4554°N, 85.9137°W
Report Text: KLOU 220053Z 00000KT 10SM OVC050 13/06 A3014 RMK AO2 SLP205 T01280061
Loading
Personal Weather Stations






























Interactive Weather Map
Tropical Storm Tracking
New forecast layout! Learn more

10-Day Weather Forecast

Advertisements
Track Severe Weather on mobile